createdAt,value
2022-07-28T00:00:06.259Z,20.73
2022-07-28T00:00:20.662Z,20.74
2022-07-28T00:00:33.958Z,20.73
2022-07-28T00:00:46.019Z,20.71
2022-07-28T00:00:57.992Z,20.73
2022-07-28T00:01:09.943Z,20.74
2022-07-28T00:01:21.870Z,20.74
2022-07-28T00:01:34.074Z,20.76
2022-07-28T00:01:46.057Z,20.73
2022-07-28T00:01:58.078Z,20.72
2022-07-28T00:02:10.166Z,20.73
2022-07-28T00:02:22.278Z,20.72
2022-07-28T00:02:34.412Z,20.72
2022-07-28T00:02:46.502Z,20.71
2022-07-28T00:02:58.769Z,20.73
2022-07-28T00:03:10.819Z,20.74
2022-07-28T00:03:23.008Z,20.76
2022-07-28T00:03:35.047Z,20.74
2022-07-28T00:03:48.781Z,20.74
2022-07-28T00:04:01.564Z,20.74
2022-07-28T00:04:13.926Z,20.75
2022-07-28T00:04:26.642Z,20.75
2022-07-28T00:04:38.595Z,20.75
2022-07-28T00:04:50.584Z,20.73
2022-07-28T00:05:03.759Z,20.73
2022-07-28T00:05:15.805Z,20.74
2022-07-28T00:05:28.091Z,20.73
2022-07-28T00:05:41.416Z,20.75
2022-07-28T00:05:53.742Z,20.75
2022-07-28T00:06:05.764Z,20.74
2022-07-28T00:06:17.760Z,20.73
2022-07-28T00:06:29.743Z,20.72
2022-07-28T00:06:41.723Z,20.73
2022-07-28T00:06:53.654Z,20.72
2022-07-28T00:07:05.675Z,20.72
2022-07-28T00:07:17.658Z,20.72
2022-07-28T00:07:29.649Z,20.72
2022-07-28T00:07:41.695Z,20.74
2022-07-28T00:07:53.656Z,20.74
2022-07-28T00:08:06.093Z,20.74
2022-07-28T00:08:18.097Z,20.74
2022-07-28T00:08:30.044Z,20.74
2022-07-28T00:08:42.075Z,20.72
2022-07-28T00:08:55.005Z,20.73
2022-07-28T00:09:06.982Z,20.74
2022-07-28T00:09:18.926Z,20.73
2022-07-28T00:09:30.882Z,20.74
2022-07-28T00:09:43.039Z,20.74
2022-07-28T00:10:00.151Z,20.74
2022-07-28T00:10:13.292Z,20.75
2022-07-28T00:10:25.385Z,20.74
2022-07-28T00:10:37.406Z,20.77
2022-07-28T00:10:49.342Z,20.78
2022-07-28T00:11:01.371Z,20.79
2022-07-28T00:11:13.467Z,20.78
2022-07-28T00:11:25.510Z,20.79
2022-07-28T00:11:50.370Z,20.78
2022-07-28T00:12:07.403Z,20.80
2022-07-28T00:12:19.370Z,20.77
2022-07-28T00:12:31.435Z,20.78
2022-07-28T00:12:43.908Z,20.79
2022-07-28T00:12:55.860Z,20.77
2022-07-28T00:13:07.950Z,20.74
2022-07-28T00:13:19.948Z,20.77
2022-07-28T00:13:31.917Z,20.76
2022-07-28T00:13:43.887Z,20.78
2022-07-28T00:13:56.086Z,20.79
2022-07-28T00:14:08.094Z,20.79
2022-07-28T00:14:21.244Z,20.79
2022-07-28T00:14:33.437Z,20.79
2022-07-28T00:14:45.442Z,20.79
2022-07-28T00:14:57.390Z,20.76
2022-07-28T00:15:09.936Z,20.77
2022-07-28T00:15:21.905Z,20.75
2022-07-28T00:15:34.870Z,20.77
2022-07-28T00:15:46.836Z,20.79
2022-07-28T00:15:58.812Z,20.79
2022-07-28T00:16:11.045Z,20.79
2022-07-28T00:16:23.288Z,20.79
2022-07-28T00:16:35.346Z,20.80
2022-07-28T00:16:47.767Z,20.81
2022-07-28T00:16:59.813Z,20.80
2022-07-28T00:17:11.812Z,20.81
2022-07-28T00:17:23.803Z,20.81
2022-07-28T00:17:35.846Z,20.81
2022-07-28T00:17:47.786Z,20.83
2022-07-28T00:18:00.562Z,20.85
2022-07-28T00:18:12.619Z,20.84
2022-07-28T00:18:24.595Z,20.84
2022-07-28T00:18:36.577Z,20.84
2022-07-28T00:18:48.517Z,20.84
2022-07-28T00:19:00.443Z,20.85
2022-07-28T00:19:12.405Z,20.85
2022-07-28T00:19:24.387Z,20.83
2022-07-28T00:19:36.408Z,20.84
2022-07-28T00:19:48.421Z,20.85
2022-07-28T00:20:00.450Z,20.85
2022-07-28T00:20:12.515Z,20.84
2022-07-28T00:20:25.249Z,20.86
2022-07-28T00:20:37.175Z,20.87
2022-07-28T00:20:49.147Z,20.88
2022-07-28T00:21:02.239Z,20.89
2022-07-28T00:21:14.543Z,20.88
2022-07-28T00:21:26.462Z,20.89
2022-07-28T00:21:38.479Z,20.91
2022-07-28T00:21:50.470Z,20.91
2022-07-28T00:22:03.068Z,20.92
2022-07-28T00:22:15.001Z,20.91
2022-07-28T00:22:26.975Z,20.91
2022-07-28T00:22:43.437Z,20.91
2022-07-28T00:22:55.389Z,20.91
2022-07-28T00:23:07.409Z,20.91
2022-07-28T00:23:19.336Z,20.91
2022-07-28T00:23:38.501Z,20.91
2022-07-28T00:23:51.216Z,20.91
2022-07-28T00:24:03.298Z,20.92
2022-07-28T00:24:15.634Z,20.90
2022-07-28T00:24:27.862Z,20.90
2022-07-28T00:24:39.791Z,20.88
2022-07-28T00:24:51.769Z,20.88
2022-07-28T00:25:03.993Z,20.88
2022-07-28T00:25:16.028Z,20.90
2022-07-28T00:25:28.002Z,20.89
2022-07-28T00:25:39.959Z,20.90
2022-07-28T00:25:51.947Z,20.91
2022-07-28T00:26:03.971Z,20.91
2022-07-28T00:26:15.959Z,20.90
2022-07-28T00:26:27.882Z,20.91
2022-07-28T00:26:39.868Z,20.91
2022-07-28T00:26:51.812Z,20.90
2022-07-28T00:27:04.889Z,20.90
2022-07-28T00:27:19.166Z,20.90
2022-07-28T00:27:31.564Z,20.92
2022-07-28T00:27:43.515Z,20.90
2022-07-28T00:27:55.457Z,20.88
2022-07-28T00:28:07.441Z,20.88
2022-07-28T00:28:19.682Z,20.90
2022-07-28T00:28:31.645Z,20.92
2022-07-28T00:28:43.647Z,20.93
2022-07-28T00:28:55.614Z,20.96
2022-07-28T00:29:08.513Z,20.95
2022-07-28T00:29:20.547Z,20.96
2022-07-28T00:29:49.903Z,20.96
2022-07-28T00:30:04.003Z,20.98
2022-07-28T00:30:15.969Z,20.98
2022-07-28T00:30:28.111Z,20.99
2022-07-28T00:30:40.200Z,21.00
2022-07-28T00:30:54.350Z,20.92
2022-07-28T00:31:08.556Z,20.92
2022-07-28T00:31:21.929Z,20.93
2022-07-28T00:31:34.423Z,20.94
2022-07-28T00:31:46.597Z,20.95
2022-07-28T00:32:00.149Z,20.92
2022-07-28T00:32:12.232Z,20.95
2022-07-28T00:32:24.309Z,20.97
2022-07-28T00:32:37.516Z,20.96
2022-07-28T00:32:49.586Z,20.96
2022-07-28T00:33:01.544Z,20.97
2022-07-28T00:33:13.499Z,20.97
2022-07-28T00:33:25.456Z,20.96
2022-07-28T00:33:37.607Z,20.97
2022-07-28T00:33:49.683Z,20.96
2022-07-28T00:34:01.666Z,20.98
2022-07-28T00:34:13.972Z,20.98
2022-07-28T00:34:26.595Z,20.98
2022-07-28T00:34:38.722Z,20.98
2022-07-28T00:34:53.903Z,20.98
2022-07-28T00:35:08.285Z,20.98
2022-07-28T00:35:30.318Z,20.97
2022-07-28T00:35:43.151Z,20.99
2022-07-28T00:36:00.473Z,21.01
2022-07-28T00:36:13.131Z,21.01
2022-07-28T00:36:25.729Z,21.00
2022-07-28T00:36:38.041Z,21.00
2022-07-28T00:36:50.750Z,21.00
2022-07-28T00:37:03.139Z,20.98
2022-07-28T00:37:18.939Z,20.98
2022-07-28T00:37:31.013Z,20.98
2022-07-28T00:37:43.071Z,20.99
2022-07-28T00:37:55.045Z,20.99
2022-07-28T00:38:08.222Z,20.99
2022-07-28T00:38:23.454Z,20.99
2022-07-28T00:38:36.111Z,20.98
2022-07-28T00:38:53.359Z,20.99
2022-07-28T00:39:05.469Z,20.98
2022-07-28T00:39:18.172Z,20.97
2022-07-28T00:39:30.123Z,20.95
2022-07-28T00:39:42.957Z,20.97
2022-07-28T00:39:54.909Z,20.98
2022-07-28T00:40:08.329Z,20.97
2022-07-28T00:40:20.421Z,20.97
2022-07-28T00:40:51.233Z,20.95
2022-07-28T00:41:12.524Z,20.97
2022-07-28T00:41:24.590Z,20.94
2022-07-28T00:41:36.591Z,20.95
2022-07-28T00:41:48.631Z,20.94
2022-07-28T00:42:02.587Z,20.93
2022-07-28T00:42:18.892Z,20.92
2022-07-28T00:42:30.898Z,20.92
2022-07-28T00:42:42.870Z,20.93
2022-07-28T00:42:54.808Z,20.93
2022-07-28T00:43:06.772Z,20.92
2022-07-28T00:43:19.595Z,20.93
2022-07-28T00:43:34.379Z,20.84
2022-07-28T00:43:48.673Z,20.86
2022-07-28T00:44:00.690Z,20.88
2022-07-28T00:44:13.843Z,20.87
2022-07-28T00:44:26.072Z,20.87
2022-07-28T00:44:41.640Z,20.88
2022-07-28T00:44:53.689Z,20.86
2022-07-28T00:45:06.651Z,20.88
2022-07-28T00:45:18.599Z,20.88
2022-07-28T00:45:30.554Z,20.86
2022-07-28T00:45:42.703Z,20.81
2022-07-28T00:45:54.679Z,20.55
2022-07-28T00:46:08.243Z,20.64
2022-07-28T00:46:22.772Z,20.68
2022-07-28T00:46:34.977Z,20.70
2022-07-28T00:46:47.034Z,20.72
2022-07-28T00:46:59.073Z,20.72
2022-07-28T00:47:11.880Z,20.76
2022-07-28T00:47:23.802Z,20.77
2022-07-28T00:47:35.736Z,20.72
2022-07-28T00:47:47.721Z,20.63
2022-07-28T00:48:00.069Z,20.65
2022-07-28T00:48:12.024Z,20.67
2022-07-28T00:48:24.246Z,20.70
2022-07-28T00:48:41.708Z,20.75
2022-07-28T00:48:55.116Z,20.77
2022-07-28T00:49:07.301Z,20.78
2022-07-28T00:49:19.935Z,20.77
2022-07-28T00:49:31.957Z,20.78
2022-07-28T00:49:45.073Z,20.78
2022-07-28T00:49:57.005Z,20.78
2022-07-28T00:50:09.727Z,20.77
2022-07-28T00:50:21.770Z,20.79
2022-07-28T00:50:33.912Z,20.80
2022-07-28T00:50:45.872Z,20.82
2022-07-28T00:50:58.011Z,20.84
2022-07-28T00:51:10.995Z,20.76
2022-07-28T00:51:26.520Z,20.78
2022-07-28T00:51:39.771Z,20.80
2022-07-28T00:51:51.955Z,20.78
2022-07-28T00:52:09.091Z,20.80
2022-07-28T00:52:21.660Z,20.83
2022-07-28T00:52:34.059Z,20.84
2022-07-28T00:52:46.575Z,20.86
2022-07-28T00:52:58.896Z,20.86
2022-07-28T00:53:11.000Z,20.89
2022-07-28T00:53:23.418Z,20.89
2022-07-28T00:53:36.671Z,20.90
2022-07-28T00:53:49.157Z,20.88
2022-07-28T00:54:01.280Z,20.89
2022-07-28T00:54:13.660Z,20.86
2022-07-28T00:54:25.894Z,20.83
2022-07-28T00:54:38.040Z,20.81
2022-07-28T00:54:50.023Z,20.82
2022-07-28T00:55:05.387Z,20.83
2022-07-28T00:55:18.895Z,20.81
2022-07-28T00:55:30.857Z,20.81
2022-07-28T00:56:03.443Z,20.80
2022-07-28T00:56:15.093Z,20.79
2022-07-28T00:56:27.144Z,20.81
2022-07-28T00:56:39.448Z,20.71
2022-07-28T00:56:51.471Z,20.68
2022-07-28T00:57:03.764Z,20.62
2022-07-28T00:57:15.711Z,20.63
2022-07-28T00:57:27.673Z,20.64
2022-07-28T00:57:40.387Z,20.65
2022-07-28T00:57:52.457Z,20.65
2022-07-28T00:58:05.279Z,20.65
2022-07-28T00:58:17.333Z,20.68
2022-07-28T00:58:29.947Z,20.68
2022-07-28T00:58:42.033Z,20.65
2022-07-28T00:58:54.168Z,20.66
2022-07-28T00:59:06.235Z,20.70
2022-07-28T00:59:18.196Z,20.71
2022-07-28T00:59:31.026Z,20.74
2022-07-28T00:59:45.900Z,20.78
2022-07-28T00:59:57.912Z,20.80
2022-07-28T01:00:10.614Z,20.79
2022-07-28T01:00:22.637Z,20.80
2022-07-28T01:00:34.716Z,20.81
2022-07-28T01:00:46.701Z,20.82
2022-07-28T01:00:58.665Z,20.82
2022-07-28T01:01:15.714Z,20.78
2022-07-28T01:01:27.683Z,20.74
2022-07-28T01:01:39.823Z,20.75
2022-07-28T01:01:53.526Z,20.78
2022-07-28T01:02:07.692Z,20.77
2022-07-28T01:02:20.413Z,20.77
2022-07-28T01:02:32.756Z,20.75
2022-07-28T01:02:48.066Z,20.77
2022-07-28T01:03:00.332Z,20.81
2022-07-28T01:03:12.693Z,20.82
2022-07-28T01:03:25.767Z,20.80
2022-07-28T01:03:40.844Z,20.78
2022-07-28T01:03:55.904Z,20.81
2022-07-28T01:04:07.950Z,20.83
2022-07-28T01:04:21.640Z,20.85
2022-07-28T01:04:33.664Z,20.83
2022-07-28T01:04:45.812Z,20.85
2022-07-28T01:04:57.864Z,20.86
2022-07-28T01:05:09.986Z,20.85
2022-07-28T01:05:43.502Z,20.80
2022-07-28T01:06:16.436Z,20.52
2022-07-28T01:06:42.681Z,20.57
2022-07-28T01:07:00.396Z,20.59
2022-07-28T01:07:33.679Z,20.61
2022-07-28T01:07:52.371Z,20.61
2022-07-28T01:08:14.968Z,20.61
2022-07-28T01:08:57.709Z,20.65
2022-07-28T01:09:31.406Z,20.63
2022-07-28T01:10:19.937Z,20.69
2022-07-28T01:10:46.591Z,20.75
2022-07-28T01:11:16.526Z,20.70
2022-07-28T01:11:43.040Z,20.68
2022-07-28T01:12:00.357Z,20.68
2022-07-28T01:12:37.810Z,20.69
2022-07-28T01:13:09.295Z,20.66
2022-07-28T01:13:45.118Z,20.68
2022-07-28T01:14:08.829Z,20.65
2022-07-28T01:14:44.745Z,20.70
2022-07-28T01:15:18.085Z,20.70
2022-07-28T01:15:35.561Z,20.75
2022-07-28T01:15:58.693Z,20.77
2022-07-28T01:16:11.253Z,20.80
2022-07-28T01:16:23.715Z,20.82
2022-07-28T01:16:49.433Z,20.80
2022-07-28T01:17:08.689Z,20.83
2022-07-28T01:17:29.401Z,20.84
2022-07-28T01:17:53.040Z,20.82
2022-07-28T01:18:14.410Z,20.84
2022-07-28T01:18:32.465Z,20.82
2022-07-28T01:18:53.224Z,20.81
2022-07-28T01:19:14.489Z,20.80
2022-07-28T01:19:50.376Z,20.79
2022-07-28T01:20:14.168Z,20.78
2022-07-28T01:20:30.531Z,20.81
2022-07-28T01:20:50.072Z,20.82
2022-07-28T01:21:21.631Z,20.83
2022-07-28T01:21:36.023Z,20.83
2022-07-28T01:21:49.433Z,20.84
2022-07-28T01:22:03.424Z,20.83
2022-07-28T01:22:20.592Z,20.83
2022-07-28T01:22:38.395Z,20.84
2022-07-28T01:23:24.841Z,20.85
2022-07-28T01:23:55.092Z,20.84
2022-07-28T01:24:22.393Z,20.84
2022-07-28T01:25:03.472Z,20.85
2022-07-28T01:25:41.103Z,20.85
2022-07-28T01:26:18.821Z,20.83
2022-07-28T01:26:36.456Z,20.85
2022-07-28T01:26:56.822Z,20.85
2022-07-28T01:27:33.656Z,20.80
2022-07-28T01:27:48.399Z,20.76
2022-07-28T01:28:24.505Z,20.77
2022-07-28T01:28:50.874Z,20.78
2022-07-28T01:29:21.810Z,20.77
2022-07-28T01:29:52.104Z,20.66
2022-07-28T01:30:06.198Z,20.59
2022-07-28T01:30:29.907Z,20.59
2022-07-28T01:30:44.135Z,20.59
2022-07-28T01:31:04.239Z,20.59
2022-07-28T01:31:21.556Z,20.62
2022-07-28T01:31:39.913Z,20.48
2022-07-28T01:31:59.964Z,20.35
2022-07-28T01:32:22.083Z,20.23
2022-07-28T01:32:46.290Z,20.29
2022-07-28T01:33:02.628Z,20.37
2022-07-28T01:33:45.422Z,20.43
2022-07-28T01:34:01.058Z,20.47
2022-07-28T01:34:18.451Z,20.47
2022-07-28T01:34:40.473Z,20.51
2022-07-28T01:34:59.077Z,20.51
2022-07-28T01:35:19.592Z,20.52
2022-07-28T01:35:37.973Z,20.51
2022-07-28T01:35:56.822Z,20.50
2022-07-28T01:36:14.258Z,20.50
2022-07-28T01:36:36.997Z,20.52
2022-07-28T01:36:59.374Z,20.50
2022-07-28T01:37:17.296Z,20.49
2022-07-28T01:37:31.586Z,20.51
2022-07-28T01:37:47.133Z,20.51
2022-07-28T01:38:03.470Z,20.52
2022-07-28T01:38:18.447Z,20.51
2022-07-28T01:38:34.291Z,20.54
2022-07-28T01:38:49.005Z,20.53
2022-07-28T01:39:02.256Z,20.56
2022-07-28T01:39:15.816Z,20.56
2022-07-28T01:39:33.098Z,20.59
2022-07-28T01:39:46.704Z,20.61
2022-07-28T01:40:06.877Z,20.62
2022-07-28T01:40:22.946Z,20.64
2022-07-28T01:40:36.844Z,20.65
2022-07-28T01:40:52.582Z,20.65
2022-07-28T01:41:09.765Z,20.64
2022-07-28T01:41:24.774Z,20.61
2022-07-28T01:41:38.826Z,20.56
2022-07-28T01:41:53.431Z,20.52
2022-07-28T01:42:07.253Z,20.52
2022-07-28T01:42:23.945Z,20.51
2022-07-28T01:42:39.821Z,20.53
2022-07-28T01:42:56.440Z,20.54
2022-07-28T01:43:14.347Z,20.55
2022-07-28T01:43:29.310Z,20.57
2022-07-28T01:43:45.749Z,20.55
2022-07-28T01:44:06.803Z,20.58
2022-07-28T01:44:22.483Z,20.53
2022-07-28T01:44:43.358Z,20.58
2022-07-28T01:44:59.324Z,20.58
2022-07-28T01:45:13.795Z,20.59
2022-07-28T01:45:26.670Z,20.44
2022-07-28T01:45:41.077Z,20.41
2022-07-28T01:45:55.392Z,20.41
2022-07-28T01:46:09.148Z,20.43
2022-07-28T01:46:22.699Z,20.46
2022-07-28T01:46:37.321Z,20.42
2022-07-28T01:46:51.709Z,20.44
2022-07-28T01:47:07.549Z,20.45
2022-07-28T01:47:21.817Z,20.46
2022-07-28T01:47:35.661Z,20.49
2022-07-28T01:47:49.771Z,20.47
2022-07-28T01:48:05.588Z,20.46
2022-07-28T01:48:20.006Z,20.43
2022-07-28T01:48:34.320Z,20.40
2022-07-28T01:48:47.311Z,20.41
2022-07-28T01:49:00.899Z,20.42
2022-07-28T01:49:14.228Z,20.43
2022-07-28T01:49:27.947Z,20.41
2022-07-28T01:49:41.343Z,20.43
2022-07-28T01:49:55.692Z,20.27
2022-07-28T01:50:11.418Z,20.30
2022-07-28T01:50:26.479Z,20.33
2022-07-28T01:50:40.603Z,20.29
2022-07-28T01:50:55.489Z,20.23
2022-07-28T01:51:09.038Z,20.28
2022-07-28T01:51:23.489Z,20.17
2022-07-28T01:51:37.024Z,20.24
2022-07-28T01:51:51.274Z,20.28
2022-07-28T01:52:08.191Z,20.30
2022-07-28T01:52:22.307Z,20.30
2022-07-28T01:52:37.080Z,20.34
2022-07-28T01:52:50.156Z,20.38
2022-07-28T01:53:03.359Z,20.41
2022-07-28T01:53:17.225Z,20.42
2022-07-28T01:53:32.206Z,20.43
2022-07-28T01:53:52.011Z,20.38
2022-07-28T01:54:05.573Z,20.38
2022-07-28T01:54:19.755Z,20.39
2022-07-28T01:54:32.781Z,20.40
2022-07-28T01:54:46.711Z,20.38
2022-07-28T01:55:02.482Z,20.38
2022-07-28T01:55:17.269Z,20.40
2022-07-28T01:55:31.299Z,20.41
2022-07-28T01:55:44.679Z,20.41
2022-07-28T01:55:59.620Z,20.44
2022-07-28T01:56:12.512Z,20.43
2022-07-28T01:56:26.298Z,20.38
2022-07-28T01:56:40.870Z,20.30
2022-07-28T01:56:54.557Z,20.32
2022-07-28T01:57:08.926Z,20.32
2022-07-28T01:57:25.141Z,20.30
2022-07-28T01:57:37.992Z,20.33
2022-07-28T01:57:53.154Z,20.32
2022-07-28T01:58:07.207Z,20.30
2022-07-28T01:58:21.933Z,20.26
2022-07-28T01:58:36.225Z,20.21
2022-07-28T01:58:51.265Z,20.17
2022-07-28T01:59:06.975Z,20.14
2022-07-28T01:59:20.149Z,20.17
2022-07-28T01:59:32.829Z,20.18
2022-07-28T01:59:45.490Z,20.18
2022-07-28T02:00:00.115Z,20.18
2022-07-28T02:00:13.995Z,20.20
2022-07-28T02:00:28.027Z,20.22
2022-07-28T02:00:42.695Z,20.26
2022-07-28T02:00:56.715Z,20.23
2022-07-28T02:01:10.082Z,20.23
2022-07-28T02:01:25.228Z,20.23
2022-07-28T02:01:41.707Z,20.23
2022-07-28T02:01:54.482Z,20.23
2022-07-28T02:02:08.631Z,20.26
2022-07-28T02:02:21.827Z,20.24
2022-07-28T02:02:34.759Z,20.26
2022-07-28T02:02:49.224Z,20.20
2022-07-28T02:03:05.956Z,20.20
2022-07-28T02:03:19.890Z,20.23
2022-07-28T02:03:34.403Z,20.15
2022-07-28T02:03:48.378Z,20.16
2022-07-28T02:04:03.162Z,20.16
2022-07-28T02:04:18.963Z,20.18
2022-07-28T02:04:32.785Z,20.21
2022-07-28T02:04:47.554Z,20.21
2022-07-28T02:05:01.011Z,20.16
2022-07-28T02:05:16.874Z,20.19
2022-07-28T02:05:33.442Z,20.20
2022-07-28T02:05:50.234Z,20.21
2022-07-28T02:06:06.132Z,20.22
2022-07-28T02:06:20.095Z,20.23
2022-07-28T02:06:33.794Z,20.24
2022-07-28T02:06:47.925Z,20.23
2022-07-28T02:07:02.609Z,20.22
2022-07-28T02:07:17.327Z,20.20
2022-07-28T02:07:31.414Z,20.18
2022-07-28T02:07:45.244Z,20.20
2022-07-28T02:07:59.275Z,20.20
2022-07-28T02:08:13.980Z,20.19
2022-07-28T02:08:26.931Z,20.19
2022-07-28T02:08:41.384Z,20.19
2022-07-28T02:08:54.625Z,20.20
2022-07-28T02:09:08.886Z,20.19
2022-07-28T02:09:22.252Z,20.21
2022-07-28T02:09:35.497Z,20.22
2022-07-28T02:09:47.933Z,20.22
2022-07-28T02:10:01.308Z,20.23
2022-07-28T02:10:16.916Z,20.21
2022-07-28T02:10:29.755Z,20.22
2022-07-28T02:10:42.760Z,20.21
2022-07-28T02:11:16.151Z,20.22
2022-07-28T02:11:42.562Z,20.19
2022-07-28T02:11:56.087Z,20.21
2022-07-28T02:12:10.986Z,20.22
2022-07-28T02:12:24.609Z,20.21
2022-07-28T02:12:39.491Z,20.21
2022-07-28T02:12:53.303Z,20.24
2022-07-28T02:13:05.777Z,20.24
2022-07-28T02:13:17.855Z,20.24
2022-07-28T02:13:32.365Z,20.24
2022-07-28T02:13:47.951Z,20.22
2022-07-28T02:14:00.972Z,20.24
2022-07-28T02:14:20.960Z,20.19
2022-07-28T02:14:36.301Z,20.20
2022-07-28T02:14:50.635Z,20.15
2022-07-28T02:15:03.581Z,20.14
2022-07-28T02:15:16.076Z,20.15
2022-07-28T02:15:29.451Z,20.15
2022-07-28T02:15:41.871Z,20.13
2022-07-28T02:15:54.716Z,20.11
2022-07-28T02:16:10.568Z,20.08
2022-07-28T02:16:24.801Z,20.08
2022-07-28T02:16:41.662Z,20.08
2022-07-28T02:17:01.710Z,20.07
2022-07-28T02:17:25.322Z,20.07
2022-07-28T02:17:42.083Z,20.07
2022-07-28T02:17:55.591Z,20.06
2022-07-28T02:18:10.395Z,20.07
2022-07-28T02:18:23.110Z,20.06
2022-07-28T02:18:37.553Z,20.06
2022-07-28T02:18:51.918Z,20.05
2022-07-28T02:19:04.893Z,20.06
2022-07-28T02:19:18.389Z,19.99
2022-07-28T02:19:32.653Z,20.01
2022-07-28T02:19:47.573Z,20.03
2022-07-28T02:20:01.399Z,20.03
2022-07-28T02:20:16.348Z,20.02
2022-07-28T02:20:29.958Z,20.03
2022-07-28T02:20:42.351Z,20.01
2022-07-28T02:20:54.580Z,19.93
2022-07-28T02:21:08.170Z,19.91
2022-07-28T02:21:23.071Z,19.86
2022-07-28T02:21:38.388Z,19.90
2022-07-28T02:21:51.609Z,19.93
2022-07-28T02:22:05.011Z,19.84
2022-07-28T02:22:17.839Z,19.84
2022-07-28T02:22:30.716Z,19.84
2022-07-28T02:22:45.361Z,19.83
2022-07-28T02:23:04.788Z,19.88
2022-07-28T02:23:16.904Z,19.86
2022-07-28T02:23:29.195Z,19.70
2022-07-28T02:23:45.367Z,19.53
2022-07-28T02:23:59.757Z,19.52
2022-07-28T02:24:13.106Z,19.52
2022-07-28T02:24:26.714Z,19.51
2022-07-28T02:24:41.156Z,19.59
2022-07-28T02:24:56.850Z,19.60
2022-07-28T02:25:10.120Z,19.56
2022-07-28T02:25:22.261Z,19.61
2022-07-28T02:25:37.437Z,19.59
2022-07-28T02:25:51.309Z,19.59
2022-07-28T02:26:08.308Z,19.58
2022-07-28T02:26:27.931Z,19.40
2022-07-28T02:26:46.584Z,19.19
2022-07-28T02:27:01.895Z,19.04
2022-07-28T02:27:26.721Z,19.10
2022-07-28T02:27:46.724Z,19.15
2022-07-28T02:28:04.280Z,19.07
2022-07-28T02:28:19.659Z,19.15
2022-07-28T02:28:31.847Z,19.22
2022-07-28T02:28:47.072Z,19.18
2022-07-28T02:29:02.440Z,19.11
2022-07-28T02:29:40.539Z,19.15
2022-07-28T02:30:02.121Z,18.92
2022-07-28T02:30:23.459Z,18.80
2022-07-28T02:30:41.332Z,18.91
2022-07-28T02:31:04.577Z,18.98
2022-07-28T02:31:22.591Z,19.09
2022-07-28T02:31:44.151Z,19.22
2022-07-28T02:32:05.282Z,19.23
2022-07-28T02:32:40.890Z,19.32
2022-07-28T02:32:56.535Z,19.35
2022-07-28T02:33:16.269Z,19.21
2022-07-28T02:33:58.581Z,19.16
2022-07-28T02:34:13.657Z,19.27
2022-07-28T02:34:28.066Z,19.32
2022-07-28T02:34:42.150Z,19.32
2022-07-28T02:35:01.706Z,19.36
2022-07-28T02:35:41.114Z,19.06
2022-07-28T02:35:57.576Z,18.93
2022-07-28T02:36:15.379Z,18.96
2022-07-28T02:36:51.136Z,19.07
2022-07-28T02:37:04.186Z,19.14
2022-07-28T02:37:18.700Z,19.18
2022-07-28T02:37:38.146Z,19.18
2022-07-28T02:37:57.100Z,19.20
2022-07-28T02:38:18.944Z,19.13
2022-07-28T02:38:35.209Z,19.01
2022-07-28T02:38:50.866Z,18.94
2022-07-28T02:39:07.576Z,18.83
2022-07-28T02:39:26.707Z,18.87
2022-07-28T02:39:58.740Z,18.95
2022-07-28T02:40:15.261Z,18.95
2022-07-28T02:40:34.579Z,19.00
2022-07-28T02:40:49.585Z,19.03
2022-07-28T02:41:13.016Z,19.02
2022-07-28T02:41:27.456Z,19.06
2022-07-28T02:41:43.167Z,19.02
2022-07-28T02:42:07.224Z,18.93
2022-07-28T02:42:23.899Z,18.77
2022-07-28T02:42:37.915Z,18.71
2022-07-28T02:42:51.929Z,18.73
2022-07-28T02:43:10.126Z,18.66
2022-07-28T02:43:27.077Z,18.78
2022-07-28T02:44:14.781Z,18.85
2022-07-28T02:44:31.807Z,18.93
2022-07-28T02:44:48.662Z,18.95
2022-07-28T02:45:03.241Z,18.94
2022-07-28T02:45:18.411Z,18.95
2022-07-28T02:45:33.643Z,18.94
2022-07-28T02:45:51.738Z,18.92
2022-07-28T02:46:10.379Z,18.91
2022-07-28T02:46:32.505Z,18.88
2022-07-28T02:46:48.013Z,18.86
2022-07-28T02:47:05.222Z,18.90
2022-07-28T02:47:24.050Z,18.93
2022-07-28T02:47:44.048Z,18.98
2022-07-28T02:48:03.315Z,19.02
2022-07-28T02:48:19.149Z,19.06
2022-07-28T02:48:36.926Z,18.98
2022-07-28T02:48:52.422Z,18.91
2022-07-28T02:49:23.435Z,19.03
2022-07-28T02:49:37.104Z,19.07
2022-07-28T02:49:50.232Z,19.08
2022-07-28T02:50:03.938Z,19.13
2022-07-28T02:50:20.309Z,19.06
2022-07-28T02:50:32.373Z,19.06
2022-07-28T02:50:46.131Z,19.00
2022-07-28T02:50:59.368Z,19.02
2022-07-28T02:51:13.764Z,19.02
2022-07-28T02:51:28.594Z,18.75
2022-07-28T02:51:43.496Z,18.81
2022-07-28T02:51:58.059Z,18.85
2022-07-28T02:52:11.721Z,18.89
2022-07-28T02:52:25.227Z,18.92
2022-07-28T02:52:38.851Z,18.97
2022-07-28T02:52:52.914Z,19.02
2022-07-28T02:53:15.159Z,19.02
2022-07-28T02:53:28.972Z,19.04
2022-07-28T02:53:42.328Z,19.06
2022-07-28T02:53:55.718Z,19.07
2022-07-28T02:54:08.994Z,19.09
2022-07-28T02:54:23.371Z,19.12
2022-07-28T02:54:39.787Z,19.14
2022-07-28T02:54:52.472Z,19.12
2022-07-28T02:55:06.040Z,19.14
2022-07-28T02:55:18.796Z,19.16
2022-07-28T02:55:31.964Z,19.15
2022-07-28T02:55:47.818Z,19.18
2022-07-28T02:56:01.505Z,19.21
2022-07-28T02:56:16.695Z,19.21
2022-07-28T02:56:30.262Z,19.24
2022-07-28T02:56:42.635Z,19.24
2022-07-28T02:57:07.802Z,19.24
2022-07-28T02:57:21.634Z,19.24
2022-07-28T02:57:34.828Z,19.25
2022-07-28T02:57:51.991Z,19.24
2022-07-28T02:58:10.823Z,19.24
2022-07-28T02:58:24.979Z,19.25
2022-07-28T02:58:37.877Z,19.25
2022-07-28T02:58:52.292Z,19.14
2022-07-28T02:59:04.818Z,19.16
2022-07-28T02:59:17.976Z,19.11
2022-07-28T02:59:31.211Z,19.11
2022-07-28T02:59:44.655Z,19.11
2022-07-28T02:59:57.309Z,19.12
2022-07-28T03:00:10.362Z,19.15
2022-07-28T03:00:23.298Z,19.09
2022-07-28T03:00:36.267Z,19.11
2022-07-28T03:00:53.028Z,19.12
2022-07-28T03:01:05.452Z,19.08
2022-07-28T03:01:21.697Z,19.05
2022-07-28T03:01:34.198Z,19.09
2022-07-28T03:01:48.997Z,19.10
2022-07-28T03:02:01.187Z,19.13
2022-07-28T03:02:13.538Z,19.14
2022-07-28T03:02:26.465Z,19.05
2022-07-28T03:02:39.705Z,19.06
2022-07-28T03:02:53.375Z,19.09
2022-07-28T03:03:05.811Z,19.09
2022-07-28T03:03:18.663Z,19.12
2022-07-28T03:03:33.490Z,19.12
2022-07-28T03:03:48.167Z,19.15
2022-07-28T03:04:00.757Z,19.17
2022-07-28T03:04:14.894Z,19.18
2022-07-28T03:04:47.012Z,19.21
2022-07-28T03:05:02.073Z,19.20
2022-07-28T03:05:15.364Z,19.14
2022-07-28T03:05:28.765Z,19.13
2022-07-28T03:05:41.666Z,19.15
2022-07-28T03:05:53.989Z,19.19
2022-07-28T03:06:06.067Z,19.15
2022-07-28T03:06:19.582Z,19.13
2022-07-28T03:06:38.897Z,19.14
2022-07-28T03:06:50.936Z,19.14
2022-07-28T03:07:02.983Z,19.12
2022-07-28T03:07:16.737Z,19.07
2022-07-28T03:07:30.271Z,19.09
2022-07-28T03:07:50.952Z,19.10
2022-07-28T03:08:04.100Z,19.10
2022-07-28T03:08:17.031Z,19.12
2022-07-28T03:08:29.220Z,19.10
2022-07-28T03:08:41.266Z,19.13
2022-07-28T03:08:53.612Z,19.12
2022-07-28T03:09:07.997Z,19.03
2022-07-28T03:09:19.993Z,18.99
2022-07-28T03:09:39.293Z,19.00
2022-07-28T03:09:51.284Z,19.01
2022-07-28T03:10:04.572Z,19.05
2022-07-28T03:10:32.941Z,19.02
2022-07-28T03:10:46.690Z,18.90
2022-07-28T03:11:09.225Z,18.97
2022-07-28T03:11:21.193Z,19.00
2022-07-28T03:11:33.152Z,19.04
2022-07-28T03:11:52.807Z,18.99
2022-07-28T03:12:05.208Z,18.84
2022-07-28T03:12:17.170Z,18.87
2022-07-28T03:12:29.166Z,18.87
2022-07-28T03:12:41.142Z,18.90
2022-07-28T03:12:54.996Z,18.91
2022-07-28T03:13:07.189Z,18.96
2022-07-28T03:13:19.185Z,18.99
2022-07-28T03:13:32.057Z,18.99
2022-07-28T03:13:44.056Z,18.98
2022-07-28T03:13:56.100Z,19.00
2022-07-28T03:14:08.044Z,18.99
2022-07-28T03:14:19.972Z,19.03
2022-07-28T03:14:31.945Z,19.05
2022-07-28T03:14:43.899Z,19.06
2022-07-28T03:14:55.938Z,19.07
2022-07-28T03:15:08.332Z,18.99
2022-07-28T03:15:20.484Z,18.95
2022-07-28T03:15:33.598Z,18.98
2022-07-28T03:15:45.582Z,19.00
2022-07-28T03:15:57.499Z,19.03
2022-07-28T03:16:09.490Z,19.03
2022-07-28T03:16:21.554Z,18.89
2022-07-28T03:16:34.933Z,18.91
2022-07-28T03:16:49.080Z,18.94
2022-07-28T03:17:04.780Z,18.93
2022-07-28T03:17:17.245Z,18.85
2022-07-28T03:17:29.178Z,18.84
2022-07-28T03:17:41.417Z,18.87
2022-07-28T03:17:53.368Z,18.89